Aeroporto :
LOGIN :

Iscrizione | Disclaimer

   EN    FR    IT 

 










Sommario :    VFR   VFR Marginale   IFR   IFR Intensivo   IFR Molto Intensivo
Visibilità : 
Base nubi : 
>= 8 km
>= 3000ft
5 / 8 km
1000 / 3000 ft
1500m / 5 km
500 / 1000 ft
800 / 1500m
200 / 500 ft
< 800m
< 200 ft
Simboli :   Temporali  Nebbia  Neve Forte  Precipitazioni Forti  Vento > 20 kt
SIGMETs :   Varie  Temporali  Ghiacco  Turbolenza  Onda orograficha  Ceneri Vulcaniche






- Altitudine del aeroporto : 219 ft
- Codice IATA : DNR


LFRD - Dinard

ULTIMO METAR :
  • 130900Z AUTO 24009KT 220V280 CAVOK 07/04 Q1006 TEMPO 4000 SHRA BKN020TCU

METARs OBSOLETI :
  • 130830Z AUTO 23007KT 9999 FEW037 06/04 Q1006 TEMPO 4000 SHRA BKN020TCU
  • 130800Z AUTO 20005KT 9999 BKN034 05/04 Q1006 TEMPO 4000 SHRA BKN020TCU BECMG 26010KT
  • 130730Z AUTO 23005KT 9999 -RA FEW023 BKN028 BKN033 06/05 Q1006 TEMPO 4000 SHRA BKN020TCU
  • 130700Z AUTO 22007KT 9999 FEW024 BKN032 BKN044 06/05 Q1006 TEMPO 4000 SHRA BKN020TCU

TAF TAF LFRD
Valido dal 13 a 06 ore il 14 a 06 ore UTC


130500Z 1306/1406 26010KT 9999 BKN030
TEMPO 1306/1310 4000 SHRA BKN020TCU
BECMG 1313/1315 18010KT
PROB30
TEMPO 1314/1317 5000 SHRA
TEMPO 1316/1318 18015G30KT 2000 RA BKN005 BKN015CB
BECMG 1318/1320 24010KT
TEMPO 1318/1324 24015G30KT 4000 SHRAGS BKN020CB
PROB30
TEMPO 1400/1406 24015G30KT 4000 SHRAGS BKN020CB
ATIS : +33 2 99 16 81 50



MetMap, La meteo Aeronautica in un colpo d'occhio ! - Copyright ORBIFLY Dicembre 2007 - Disclaimer

ORBIFLY MET'MAP TEAM :

Programmazione e sviluppo : Alexandra Zaïnal
Concezione e sviluppo : Baudouin d'Aumeries
Co-Programmazione e sviluppo : Marc-Olivier Méhu
Supporto tecnico e logistico : Manuel Goepfert
Aiuto per la traduzione : Arnaldo La Scala

Contatto : metmap@orbifly.com




FONTI E CREDITI :

   NOAA